sensor_id;sensor_type;location;lat;lon;timestamp;P1;durP1;ratioP1;P2;durP2;ratioP2
22256;SDS011;11297;42.686;23.374;2022-08-30T00:01:03;11.53;;;9.57;;
22256;SDS011;11297;42.686;23.374;2022-08-30T00:03:35;11.07;;;9.97;;
22256;SDS011;11297;42.686;23.374;2022-08-30T00:06:11;14.43;;;11.13;;
22256;SDS011;11297;42.686;23.374;2022-08-30T00:08:38;10.47;;;9.57;;
22256;SDS011;11297;42.686;23.374;2022-08-30T00:11:06;13.43;;;12.03;;
22256;SDS011;11297;42.686;23.374;2022-08-30T00:13:39;13.73;;;10.00;;
22256;SDS011;11297;42.686;23.374;2022-08-30T00:16:06;12.13;;;10.87;;
22256;SDS011;11297;42.686;23.374;2022-08-30T00:18:35;14.57;;;12.27;;
22256;SDS011;11297;42.686;23.374;2022-08-30T00:21:01;11.27;;;10.10;;
22256;SDS011;11297;42.686;23.374;2022-08-30T00:23:27;13.10;;;11.67;;
22256;SDS011;11297;42.686;23.374;2022-08-30T00:25:53;11.00;;;9.83;;
22256;SDS011;11297;42.686;23.374;2022-08-30T00:28:18;16.33;;;12.87;;
22256;SDS011;11297;42.686;23.374;2022-08-30T00:30:45;14.60;;;12.40;;
22256;SDS011;11297;42.686;23.374;2022-08-30T00:33:12;13.73;;;12.13;;
22256;SDS011;11297;42.686;23.374;2022-08-30T00:35:38;13.47;;;12.07;;
22256;SDS011;11297;42.686;23.374;2022-08-30T00:38:06;12.23;;;11.10;;
22256;SDS011;11297;42.686;23.374;2022-08-30T00:40:32;12.27;;;11.00;;
22256;SDS011;11297;42.686;23.374;2022-08-30T00:42:58;14.43;;;13.07;;
22256;SDS011;11297;42.686;23.374;2022-08-30T00:45:26;13.40;;;11.97;;
22256;SDS011;11297;42.686;23.374;2022-08-30T00:47:54;17.87;;;14.00;;
22256;SDS011;11297;42.686;23.374;2022-08-30T00:50:21;15.40;;;13.77;;
22256;SDS011;11297;42.686;23.374;2022-08-30T00:52:49;15.57;;;11.80;;
22256;SDS011;11297;42.686;23.374;2022-08-30T00:55:18;12.83;;;11.00;;
22256;SDS011;11297;42.686;23.374;2022-08-30T00:57:46;13.80;;;12.00;;
22256;SDS011;11297;42.686;23.374;2022-08-30T01:00:13;15.57;;;13.83;;
22256;SDS011;11297;42.686;23.374;2022-08-30T01:02:39;13.90;;;11.97;;
22256;SDS011;11297;42.686;23.374;2022-08-30T01:05:07;15.33;;;13.90;;
22256;SDS011;11297;42.686;23.374;2022-08-30T01:07:35;12.87;;;11.57;;
22256;SDS011;11297;42.686;23.374;2022-08-30T01:10:02;16.90;;;13.83;;
22256;SDS011;11297;42.686;23.374;2022-08-30T01:12:29;15.40;;;13.73;;
22256;SDS011;11297;42.686;23.374;2022-08-30T01:14:55;17.90;;;13.67;;
22256;SDS011;11297;42.686;23.374;2022-08-30T01:17:22;16.83;;;13.40;;
22256;SDS011;11297;42.686;23.374;2022-08-30T01:24:55;14.33;;;12.83;;
22256;SDS011;11297;42.686;23.374;2022-08-30T01:27:23;13.60;;;11.80;;
22256;SDS011;11297;42.686;23.374;2022-08-30T01:29:50;16.57;;;13.37;;
22256;SDS011;11297;42.686;23.374;2022-08-30T01:32:18;12.60;;;10.97;;
22256;SDS011;11297;42.686;23.374;2022-08-30T01:34:46;14.03;;;12.47;;
22256;SDS011;11297;42.686;23.374;2022-08-30T01:37:17;11.77;;;10.10;;
22256;SDS011;11297;42.686;23.374;2022-08-30T01:39:46;13.93;;;12.53;;
22256;SDS011;11297;42.686;23.374;2022-08-30T01:42:12;14.07;;;12.60;;
22256;SDS011;11297;42.686;23.374;2022-08-30T01:44:41;15.87;;;12.60;;
22256;SDS011;11297;42.686;23.374;2022-08-30T01:47:07;14.30;;;12.80;;
22256;SDS011;11297;42.686;23.374;2022-08-30T01:49:32;18.07;;;14.63;;
22256;SDS011;11297;42.686;23.374;2022-08-30T01:51:58;15.87;;;14.23;;
22256;SDS011;11297;42.686;23.374;2022-08-30T01:54:23;14.83;;;13.10;;
22256;SDS011;11297;42.686;23.374;2022-08-30T01:56:49;13.37;;;12.07;;
22256;SDS011;11297;42.686;23.374;2022-08-30T01:59:14;14.47;;;12.33;;
22256;SDS011;11297;42.686;23.374;2022-08-30T02:01:40;12.00;;;10.73;;
22256;SDS011;11297;42.686;23.374;2022-08-30T02:04:07;12.97;;;11.67;;
22256;SDS011;11297;42.686;23.374;2022-08-30T02:06:33;13.30;;;12.10;;
22256;SDS011;11297;42.686;23.374;2022-08-30T02:08:59;12.90;;;11.60;;
22256;SDS011;11297;42.686;23.374;2022-08-30T02:11:25;15.10;;;13.20;;
22256;SDS011;11297;42.686;23.374;2022-08-30T02:13:50;13.00;;;11.10;;
22256;SDS011;11297;42.686;23.374;2022-08-30T02:16:18;13.20;;;12.00;;
22256;SDS011;11297;42.686;23.374;2022-08-30T02:18:46;17.20;;;13.10;;
22256;SDS011;11297;42.686;23.374;2022-08-30T02:21:13;16.93;;;14.43;;
22256;SDS011;11297;42.686;23.374;2022-08-30T02:23:38;12.87;;;11.57;;
22256;SDS011;11297;42.686;23.374;2022-08-30T02:26:04;12.20;;;10.97;;
22256;SDS011;11297;42.686;23.374;2022-08-30T02:28:29;15.30;;;12.70;;
22256;SDS011;11297;42.686;23.374;2022-08-30T02:30:55;14.10;;;12.37;;
22256;SDS011;11297;42.686;23.374;2022-08-30T02:33:21;18.53;;;13.27;;
22256;SDS011;11297;42.686;23.374;2022-08-30T02:35:46;14.43;;;12.93;;
22256;SDS011;11297;42.686;23.374;2022-08-30T02:38:12;13.00;;;11.40;;
22256;SDS011;11297;42.686;23.374;2022-08-30T02:40:37;12.80;;;11.50;;
22256;SDS011;11297;42.686;23.374;2022-08-30T02:43:03;13.17;;;11.87;;
22256;SDS011;11297;42.686;23.374;2022-08-30T02:45:29;13.57;;;12.13;;
22256;SDS011;11297;42.686;23.374;2022-08-30T02:47:54;14.17;;;12.67;;
22256;SDS011;11297;42.686;23.374;2022-08-30T02:50:23;17.40;;;13.00;;
22256;SDS011;11297;42.686;23.374;2022-08-30T02:52:49;14.30;;;12.90;;
22256;SDS011;11297;42.686;23.374;2022-08-30T02:55:15;13.97;;;11.37;;
22256;SDS011;11297;42.686;23.374;2022-08-30T02:57:41;13.63;;;11.70;;
22256;SDS011;11297;42.686;23.374;2022-08-30T03:00:09;12.40;;;10.97;;
22256;SDS011;11297;42.686;23.374;2022-08-30T03:02:37;14.43;;;12.87;;
22256;SDS011;11297;42.686;23.374;2022-08-30T03:05:03;13.00;;;11.07;;
22256;SDS011;11297;42.686;23.374;2022-08-30T03:07:29;12.90;;;11.70;;
22256;SDS011;11297;42.686;23.374;2022-08-30T03:09:55;13.37;;;11.60;;
22256;SDS011;11297;42.686;23.374;2022-08-30T03:12:21;13.43;;;12.07;;
22256;SDS011;11297;42.686;23.374;2022-08-30T03:14:47;13.80;;;12.40;;
22256;SDS011;11297;42.686;23.374;2022-08-30T03:17:12;14.10;;;12.80;;
22256;SDS011;11297;42.686;23.374;2022-08-30T03:19:37;13.57;;;12.17;;
22256;SDS011;11297;42.686;23.374;2022-08-30T03:22:04;18.13;;;12.70;;
22256;SDS011;11297;42.686;23.374;2022-08-30T03:24:30;15.17;;;12.73;;
22256;SDS011;11297;42.686;23.374;2022-08-30T03:26:56;14.00;;;12.63;;
22256;SDS011;11297;42.686;23.374;2022-08-30T03:29:22;14.30;;;12.70;;
22256;SDS011;11297;42.686;23.374;2022-08-30T03:31:47;14.87;;;13.10;;
22256;SDS011;11297;42.686;23.374;2022-08-30T03:34:13;15.27;;;13.77;;
22256;SDS011;11297;42.686;23.374;2022-08-30T03:36:39;13.50;;;12.30;;
22256;SDS011;11297;42.686;23.374;2022-08-30T03:39:05;12.73;;;11.43;;
22256;SDS011;11297;42.686;23.374;2022-08-30T03:41:32;15.83;;;13.57;;
22256;SDS011;11297;42.686;23.374;2022-08-30T03:43:58;13.67;;;12.23;;
22256;SDS011;11297;42.686;23.374;2022-08-30T03:46:24;13.50;;;12.13;;
22256;SDS011;11297;42.686;23.374;2022-08-30T03:48:50;14.40;;;12.90;;
22256;SDS011;11297;42.686;23.374;2022-08-30T03:51:16;14.10;;;12.30;;
22256;SDS011;11297;42.686;23.374;2022-08-30T03:53:42;14.30;;;12.83;;
22256;SDS011;11297;42.686;23.374;2022-08-30T03:56:08;13.67;;;12.37;;
22256;SDS011;11297;42.686;23.374;2022-08-30T03:58:34;18.97;;;16.97;;
22256;SDS011;11297;42.686;23.374;2022-08-30T04:01:00;21.63;;;14.73;;
22256;SDS011;11297;42.686;23.374;2022-08-30T04:03:26;14.53;;;12.43;;
22256;SDS011;11297;42.686;23.374;2022-08-30T04:05:52;11.13;;;9.97;;
22256;SDS011;11297;42.686;23.374;2022-08-30T04:08:19;13.90;;;12.53;;
22256;SDS011;11297;42.686;23.374;2022-08-30T04:10:45;14.43;;;12.47;;
22256;SDS011;11297;42.686;23.374;2022-08-30T04:13:12;15.90;;;14.27;;
22256;SDS011;11297;42.686;23.374;2022-08-30T04:15:38;11.47;;;10.37;;
22256;SDS011;11297;42.686;23.374;2022-08-30T04:18:04;16.83;;;10.80;;
22256;SDS011;11297;42.686;23.374;2022-08-30T04:20:29;12.70;;;11.40;;
22256;SDS011;11297;42.686;23.374;2022-08-30T04:22:55;10.73;;;9.57;;
22256;SDS011;11297;42.686;23.374;2022-08-30T04:25:20;12.13;;;10.90;;
22256;SDS011;11297;42.686;23.374;2022-08-30T04:27:46;11.33;;;10.33;;
22256;SDS011;11297;42.686;23.374;2022-08-30T04:30:12;11.67;;;10.57;;
22256;SDS011;11297;42.686;23.374;2022-08-30T04:32:39;12.27;;;10.77;;
22256;SDS011;11297;42.686;23.374;2022-08-30T04:35:05;13.07;;;11.53;;
22256;SDS011;11297;42.686;23.374;2022-08-30T04:37:30;20.03;;;12.43;;
22256;SDS011;11297;42.686;23.374;2022-08-30T04:39:57;12.40;;;11.27;;
22256;SDS011;11297;42.686;23.374;2022-08-30T04:42:24;13.57;;;11.20;;
22256;SDS011;11297;42.686;23.374;2022-08-30T04:44:55;14.30;;;10.37;;
22256;SDS011;11297;42.686;23.374;2022-08-30T04:47:21;12.57;;;11.13;;
22256;SDS011;11297;42.686;23.374;2022-08-30T04:49:46;14.13;;;11.83;;
22256;SDS011;11297;42.686;23.374;2022-08-30T04:52:12;12.97;;;11.67;;
22256;SDS011;11297;42.686;23.374;2022-08-30T04:54:38;10.53;;;9.63;;
22256;SDS011;11297;42.686;23.374;2022-08-30T04:57:04;13.00;;;11.67;;
22256;SDS011;11297;42.686;23.374;2022-08-30T04:59:30;14.13;;;12.73;;
22256;SDS011;11297;42.686;23.374;2022-08-30T05:01:55;13.37;;;12.00;;
22256;SDS011;11297;42.686;23.374;2022-08-30T05:04:21;14.70;;;13.20;;
22256;SDS011;11297;42.686;23.374;2022-08-30T05:06:46;14.23;;;12.70;;
22256;SDS011;11297;42.686;23.374;2022-08-30T05:09:13;14.37;;;12.90;;
22256;SDS011;11297;42.686;23.374;2022-08-30T05:11:39;14.30;;;12.83;;
22256;SDS011;11297;42.686;23.374;2022-08-30T05:14:04;15.27;;;13.27;;
22256;SDS011;11297;42.686;23.374;2022-08-30T05:16:30;18.60;;;12.80;;
22256;SDS011;11297;42.686;23.374;2022-08-30T05:18:55;15.47;;;13.80;;
22256;SDS011;11297;42.686;23.374;2022-08-30T05:21:22;17.53;;;14.50;;
22256;SDS011;11297;42.686;23.374;2022-08-30T05:23:51;16.47;;;11.90;;
22256;SDS011;11297;42.686;23.374;2022-08-30T05:26:28;18.17;;;11.73;;
22256;SDS011;11297;42.686;23.374;2022-08-30T05:28:55;14.47;;;13.00;;
22256;SDS011;11297;42.686;23.374;2022-08-30T05:31:28;18.13;;;14.17;;
22256;SDS011;11297;42.686;23.374;2022-08-30T05:33:56;16.73;;;13.53;;
22256;SDS011;11297;42.686;23.374;2022-08-30T05:36:22;16.10;;;14.30;;
22256;SDS011;11297;42.686;23.374;2022-08-30T05:38:50;13.87;;;12.53;;
22256;SDS011;11297;42.686;23.374;2022-08-30T05:41:17;16.07;;;12.93;;
22256;SDS011;11297;42.686;23.374;2022-08-30T05:43:43;21.43;;;13.60;;
22256;SDS011;11297;42.686;23.374;2022-08-30T05:46:10;17.80;;;15.93;;
22256;SDS011;11297;42.686;23.374;2022-08-30T05:48:38;20.13;;;17.80;;
22256;SDS011;11297;42.686;23.374;2022-08-30T05:53:41;17.07;;;15.00;;
22256;SDS011;11297;42.686;23.374;2022-08-30T05:56:08;20.27;;;15.93;;
22256;SDS011;11297;42.686;23.374;2022-08-30T05:58:35;17.07;;;12.50;;
22256;SDS011;11297;42.686;23.374;2022-08-30T06:01:01;13.30;;;11.87;;
22256;SDS011;11297;42.686;23.374;2022-08-30T06:03:27;15.30;;;12.33;;
22256;SDS011;11297;42.686;23.374;2022-08-30T06:05:53;11.27;;;10.27;;
22256;SDS011;11297;42.686;23.374;2022-08-30T06:08:19;12.33;;;10.87;;
22256;SDS011;11297;42.686;23.374;2022-08-30T06:10:45;16.13;;;12.93;;
22256;SDS011;11297;42.686;23.374;2022-08-30T06:13:12;17.80;;;13.43;;
22256;SDS011;11297;42.686;23.374;2022-08-30T06:15:38;14.57;;;13.03;;
22256;SDS011;11297;42.686;23.374;2022-08-30T06:18:04;15.63;;;13.10;;
22256;SDS011;11297;42.686;23.374;2022-08-30T06:20:30;13.47;;;11.43;;
22256;SDS011;11297;42.686;23.374;2022-08-30T06:22:56;15.37;;;11.27;;
22256;SDS011;11297;42.686;23.374;2022-08-30T06:25:22;15.20;;;11.80;;
22256;SDS011;11297;42.686;23.374;2022-08-30T06:27:47;13.27;;;11.27;;
22256;SDS011;11297;42.686;23.374;2022-08-30T06:30:13;18.67;;;12.57;;
22256;SDS011;11297;42.686;23.374;2022-08-30T06:32:39;16.93;;;13.27;;
22256;SDS011;11297;42.686;23.374;2022-08-30T06:35:04;17.90;;;12.20;;
22256;SDS011;11297;42.686;23.374;2022-08-30T06:37:31;19.07;;;11.97;;
22256;SDS011;11297;42.686;23.374;2022-08-30T06:39:58;15.43;;;13.70;;
22256;SDS011;11297;42.686;23.374;2022-08-30T06:42:24;21.77;;;14.30;;
22256;SDS011;11297;42.686;23.374;2022-08-30T06:44:59;16.80;;;13.10;;
22256;SDS011;11297;42.686;23.374;2022-08-30T06:47:26;17.63;;;13.63;;
22256;SDS011;11297;42.686;23.374;2022-08-30T06:49:52;15.43;;;13.80;;
22256;SDS011;11297;42.686;23.374;2022-08-30T06:52:17;15.97;;;14.33;;
22256;SDS011;11297;42.686;23.374;2022-08-30T06:54:43;14.73;;;12.23;;
22256;SDS011;11297;42.686;23.374;2022-08-30T06:57:08;14.00;;;12.00;;
22256;SDS011;11297;42.686;23.374;2022-08-30T06:59:36;16.07;;;14.43;;
22256;SDS011;11297;42.686;23.374;2022-08-30T07:02:01;17.13;;;13.70;;
22256;SDS011;11297;42.686;23.374;2022-08-30T07:04:27;16.83;;;13.13;;
22256;SDS011;11297;42.686;23.374;2022-08-30T07:06:52;15.40;;;13.73;;
22256;SDS011;11297;42.686;23.374;2022-08-30T07:09:18;17.77;;;13.53;;
22256;SDS011;11297;42.686;23.374;2022-08-30T07:11:44;14.67;;;11.90;;
22256;SDS011;11297;42.686;23.374;2022-08-30T07:14:09;13.17;;;10.27;;
22256;SDS011;11297;42.686;23.374;2022-08-30T07:16:35;20.23;;;12.57;;
22256;SDS011;11297;42.686;23.374;2022-08-30T07:19:00;19.90;;;13.33;;
22256;SDS011;11297;42.686;23.374;2022-08-30T07:21:30;17.07;;;12.67;;
22256;SDS011;11297;42.686;23.374;2022-08-30T07:24:01;11.87;;;8.97;;
22256;SDS011;11297;42.686;23.374;2022-08-30T07:26:31;15.67;;;11.30;;
22256;SDS011;11297;42.686;23.374;2022-08-30T07:28:58;14.33;;;11.30;;
22256;SDS011;11297;42.686;23.374;2022-08-30T07:31:24;15.87;;;11.60;;
22256;SDS011;11297;42.686;23.374;2022-08-30T07:33:50;14.30;;;11.33;;
22256;SDS011;11297;42.686;23.374;2022-08-30T07:36:16;14.57;;;11.63;;
22256;SDS011;11297;42.686;23.374;2022-08-30T07:38:43;29.47;;;12.17;;
22256;SDS011;11297;42.686;23.374;2022-08-30T07:41:15;15.27;;;11.83;;
22256;SDS011;11297;42.686;23.374;2022-08-30T07:43:45;18.43;;;12.63;;
22256;SDS011;11297;42.686;23.374;2022-08-30T07:46:11;15.67;;;11.00;;
22256;SDS011;11297;42.686;23.374;2022-08-30T07:48:36;15.33;;;11.40;;
22256;SDS011;11297;42.686;23.374;2022-08-30T07:51:02;18.40;;;11.17;;
22256;SDS011;11297;42.686;23.374;2022-08-30T07:53:29;15.00;;;11.03;;
22256;SDS011;11297;42.686;23.374;2022-08-30T07:55:54;16.53;;;12.77;;
22256;SDS011;11297;42.686;23.374;2022-08-30T07:58:20;19.37;;;14.10;;
22256;SDS011;11297;42.686;23.374;2022-08-30T08:00:46;15.77;;;10.77;;
22256;SDS011;11297;42.686;23.374;2022-08-30T08:03:11;21.03;;;13.43;;
22256;SDS011;11297;42.686;23.374;2022-08-30T08:05:38;13.67;;;9.20;;
22256;SDS011;11297;42.686;23.374;2022-08-30T08:08:05;13.23;;;10.50;;
22256;SDS011;11297;42.686;23.374;2022-08-30T08:10:31;13.00;;;9.13;;
22256;SDS011;11297;42.686;23.374;2022-08-30T08:12:57;15.23;;;12.83;;
22256;SDS011;11297;42.686;23.374;2022-08-30T08:15:22;14.10;;;12.70;;
22256;SDS011;11297;42.686;23.374;2022-08-30T08:17:49;13.87;;;11.50;;
22256;SDS011;11297;42.686;23.374;2022-08-30T08:20:15;20.10;;;13.67;;
22256;SDS011;11297;42.686;23.374;2022-08-30T08:22:40;18.97;;;14.90;;
22256;SDS011;11297;42.686;23.374;2022-08-30T08:25:06;16.77;;;10.87;;
22256;SDS011;11297;42.686;23.374;2022-08-30T08:27:31;17.60;;;13.60;;
22256;SDS011;11297;42.686;23.374;2022-08-30T08:29:57;16.17;;;13.97;;
22256;SDS011;11297;42.686;23.374;2022-08-30T08:32:22;18.00;;;12.97;;
22256;SDS011;11297;42.686;23.374;2022-08-30T08:34:48;16.77;;;14.10;;
22256;SDS011;11297;42.686;23.374;2022-08-30T08:37:13;11.20;;;10.10;;
22256;SDS011;11297;42.686;23.374;2022-08-30T08:39:38;16.60;;;13.70;;
22256;SDS011;11297;42.686;23.374;2022-08-30T08:43:09;15.37;;;12.17;;
22256;SDS011;11297;42.686;23.374;2022-08-30T08:46:04;12.50;;;10.00;;
22256;SDS011;11297;42.686;23.374;2022-08-30T08:48:24;10.57;;;9.20;;
22256;SDS011;11297;42.686;23.374;2022-08-30T08:50:59;13.07;;;8.73;;
22256;SDS011;11297;42.686;23.374;2022-08-30T08:53:47;15.03;;;13.33;;
22256;SDS011;11297;42.686;23.374;2022-08-30T08:56:20;18.53;;;13.27;;
22256;SDS011;11297;42.686;23.374;2022-08-30T08:58:50;16.97;;;14.50;;
22256;SDS011;11297;42.686;23.374;2022-08-30T09:01:19;19.33;;;15.57;;
22256;SDS011;11297;42.686;23.374;2022-08-30T09:03:47;19.93;;;14.97;;
22256;SDS011;11297;42.686;23.374;2022-08-30T09:09:06;17.03;;;13.17;;
22256;SDS011;11297;42.686;23.374;2022-08-30T09:11:33;13.40;;;10.07;;
22256;SDS011;11297;42.686;23.374;2022-08-30T09:13:59;12.80;;;9.87;;
22256;SDS011;11297;42.686;23.374;2022-08-30T09:27:35;16.87;;;12.90;;
22256;SDS011;11297;42.686;23.374;2022-08-30T09:32:56;14.57;;;12.80;;
22256;SDS011;11297;42.686;23.374;2022-08-30T09:35:23;15.03;;;12.17;;
22256;SDS011;11297;42.686;23.374;2022-08-30T09:38:01;15.57;;;12.83;;
22256;SDS011;11297;42.686;23.374;2022-08-30T09:40:43;17.10;;;13.93;;
22256;SDS011;11297;42.686;23.374;2022-08-30T09:43:19;18.30;;;13.67;;
22256;SDS011;11297;42.686;23.374;2022-08-30T10:02:28;16.87;;;13.87;;
22256;SDS011;11297;42.686;23.374;2022-08-30T10:11:09;17.33;;;14.83;;
22256;SDS011;11297;42.686;23.374;2022-08-30T10:13:55;16.90;;;13.30;;
22256;SDS011;11297;42.686;23.374;2022-08-30T10:16:28;16.73;;;14.07;;
22256;SDS011;11297;42.686;23.374;2022-08-30T10:22:03;20.27;;;13.20;;
22256;SDS011;11297;42.686;23.374;2022-08-30T10:24:37;17.33;;;13.53;;
22256;SDS011;11297;42.686;23.374;2022-08-30T10:27:08;16.87;;;13.33;;
22256;SDS011;11297;42.686;23.374;2022-08-30T10:30:20;22.23;;;14.77;;
22256;SDS011;11297;42.686;23.374;2022-08-30T10:32:34;27.37;;;19.43;;
22256;SDS011;11297;42.686;23.374;2022-08-30T10:37:40;32.73;;;14.80;;
22256;SDS011;11297;42.686;23.374;2022-08-30T10:40:14;37.00;;;17.43;;
22256;SDS011;11297;42.686;23.374;2022-08-30T10:43:15;24.83;;;16.33;;
22256;SDS011;11297;42.686;23.374;2022-08-30T10:45:48;20.57;;;15.43;;
22256;SDS011;11297;42.686;23.374;2022-08-30T10:48:20;62.03;;;34.77;;
22256;SDS011;11297;42.686;23.374;2022-08-30T10:50:51;206.33;;;107.40;;
22256;SDS011;11297;42.686;23.374;2022-08-30T10:58:14;182.30;;;87.47;;
22256;SDS011;11297;42.686;23.374;2022-08-30T11:06:18;70.83;;;39.87;;
22256;SDS011;11297;42.686;23.374;2022-08-30T11:14:09;34.83;;;21.73;;
22256;SDS011;11297;42.686;23.374;2022-08-30T11:16:40;53.93;;;30.73;;
22256;SDS011;11297;42.686;23.374;2022-08-30T11:19:15;52.73;;;28.90;;
22256;SDS011;11297;42.686;23.374;2022-08-30T11:21:45;15.80;;;11.47;;
22256;SDS011;11297;42.686;23.374;2022-08-30T11:40:05;67.03;;;36.97;;
22256;SDS011;11297;42.686;23.374;2022-08-30T11:55:52;38.40;;;24.87;;
22256;SDS011;11297;42.686;23.374;2022-08-30T12:04:03;38.50;;;23.17;;
22256;SDS011;11297;42.686;23.374;2022-08-30T12:09:04;25.67;;;15.97;;
22256;SDS011;11297;42.686;23.374;2022-08-30T12:14:00;25.87;;;16.13;;
22256;SDS011;11297;42.686;23.374;2022-08-30T12:16:39;20.80;;;14.10;;
22256;SDS011;11297;42.686;23.374;2022-08-30T12:19:28;15.03;;;12.03;;
22256;SDS011;11297;42.686;23.374;2022-08-30T12:21:58;13.47;;;11.33;;
22256;SDS011;11297;42.686;23.374;2022-08-30T12:24:36;16.47;;;12.00;;
22256;SDS011;11297;42.686;23.374;2022-08-30T12:27:38;22.57;;;11.77;;
22256;SDS011;11297;42.686;23.374;2022-08-30T12:29:58;16.10;;;11.80;;
22256;SDS011;11297;42.686;23.374;2022-08-30T12:32:28;19.13;;;12.83;;
22256;SDS011;11297;42.686;23.374;2022-08-30T12:34:56;16.77;;;12.83;;
22256;SDS011;11297;42.686;23.374;2022-08-30T12:37:24;13.90;;;12.07;;
22256;SDS011;11297;42.686;23.374;2022-08-30T12:42:41;15.20;;;11.17;;
22256;SDS011;11297;42.686;23.374;2022-08-30T12:45:19;16.10;;;11.87;;
22256;SDS011;11297;42.686;23.374;2022-08-30T12:47:49;15.20;;;12.50;;
22256;SDS011;11297;42.686;23.374;2022-08-30T12:50:33;14.43;;;11.90;;
22256;SDS011;11297;42.686;23.374;2022-08-30T12:53:09;16.50;;;12.03;;
22256;SDS011;11297;42.686;23.374;2022-08-30T12:55:51;14.20;;;12.07;;
22256;SDS011;11297;42.686;23.374;2022-08-30T13:01:18;16.97;;;12.17;;
22256;SDS011;11297;42.686;23.374;2022-08-30T13:06:41;17.33;;;11.37;;
22256;SDS011;11297;42.686;23.374;2022-08-30T13:09:28;13.30;;;10.60;;
22256;SDS011;11297;42.686;23.374;2022-08-30T13:11:56;13.10;;;11.70;;
22256;SDS011;11297;42.686;23.374;2022-08-30T13:20:03;13.80;;;11.33;;
22256;SDS011;11297;42.686;23.374;2022-08-30T13:23:02;14.60;;;10.80;;
22256;SDS011;11297;42.686;23.374;2022-08-30T13:25:35;15.43;;;12.20;;
22256;SDS011;11297;42.686;23.374;2022-08-30T13:28:02;14.20;;;11.27;;
22256;SDS011;11297;42.686;23.374;2022-08-30T13:30:30;13.77;;;10.67;;
22256;SDS011;11297;42.686;23.374;2022-08-30T13:32:55;13.17;;;11.37;;
22256;SDS011;11297;42.686;23.374;2022-08-30T13:35:21;19.07;;;11.70;;
22256;SDS011;11297;42.686;23.374;2022-08-30T13:37:47;14.03;;;10.37;;
22256;SDS011;11297;42.686;23.374;2022-08-30T13:40:13;13.67;;;11.20;;
22256;SDS011;11297;42.686;23.374;2022-08-30T13:42:39;23.70;;;12.07;;
22256;SDS011;11297;42.686;23.374;2022-08-30T13:45:07;15.70;;;11.60;;
22256;SDS011;11297;42.686;23.374;2022-08-30T13:47:33;11.90;;;10.80;;
22256;SDS011;11297;42.686;23.374;2022-08-30T13:49:58;14.43;;;11.33;;
22256;SDS011;11297;42.686;23.374;2022-08-30T13:52:24;14.57;;;11.30;;
22256;SDS011;11297;42.686;23.374;2022-08-30T13:54:50;14.07;;;10.70;;
22256;SDS011;11297;42.686;23.374;2022-08-30T13:57:18;17.77;;;12.40;;
22256;SDS011;11297;42.686;23.374;2022-08-30T13:59:45;13.30;;;11.90;;
22256;SDS011;11297;42.686;23.374;2022-08-30T14:02:11;13.20;;;11.37;;
22256;SDS011;11297;42.686;23.374;2022-08-30T14:04:36;12.53;;;11.23;;
22256;SDS011;11297;42.686;23.374;2022-08-30T14:07:02;14.83;;;11.83;;
22256;SDS011;11297;42.686;23.374;2022-08-30T14:09:27;14.83;;;11.30;;
22256;SDS011;11297;42.686;23.374;2022-08-30T14:11:53;13.87;;;11.50;;
22256;SDS011;11297;42.686;23.374;2022-08-30T14:14:18;12.10;;;10.83;;
22256;SDS011;11297;42.686;23.374;2022-08-30T14:16:44;15.13;;;11.73;;
22256;SDS011;11297;42.686;23.374;2022-08-30T14:19:10;14.67;;;12.57;;
22256;SDS011;11297;42.686;23.374;2022-08-30T14:21:37;17.87;;;11.93;;
22256;SDS011;11297;42.686;23.374;2022-08-30T14:24:03;13.33;;;11.93;;
22256;SDS011;11297;42.686;23.374;2022-08-30T14:26:34;14.03;;;10.90;;
22256;SDS011;11297;42.686;23.374;2022-08-30T14:29:08;14.13;;;11.50;;
22256;SDS011;11297;42.686;23.374;2022-08-30T14:31:35;12.07;;;10.80;;
22256;SDS011;11297;42.686;23.374;2022-08-30T14:34:01;15.80;;;11.37;;
22256;SDS011;11297;42.686;23.374;2022-08-30T14:36:27;14.33;;;11.70;;
22256;SDS011;11297;42.686;23.374;2022-08-30T14:38:53;15.87;;;11.27;;
22256;SDS011;11297;42.686;23.374;2022-08-30T14:41:18;15.40;;;11.30;;
22256;SDS011;11297;42.686;23.374;2022-08-30T14:43:44;14.57;;;12.40;;
22256;SDS011;11297;42.686;23.374;2022-08-30T14:46:09;18.50;;;11.80;;
22256;SDS011;11297;42.686;23.374;2022-08-30T14:48:35;16.07;;;12.07;;
22256;SDS011;11297;42.686;23.374;2022-08-30T14:51:02;13.43;;;12.23;;
22256;SDS011;11297;42.686;23.374;2022-08-30T14:53:36;13.27;;;11.87;;
22256;SDS011;11297;42.686;23.374;2022-08-30T14:56:11;15.03;;;12.60;;
22256;SDS011;11297;42.686;23.374;2022-08-30T14:58:39;19.07;;;12.97;;
22256;SDS011;11297;42.686;23.374;2022-08-30T15:01:08;14.03;;;12.50;;
22256;SDS011;11297;42.686;23.374;2022-08-30T15:03:35;15.37;;;12.80;;
22256;SDS011;11297;42.686;23.374;2022-08-30T15:06:02;16.97;;;14.90;;
22256;SDS011;11297;42.686;23.374;2022-08-30T15:08:28;15.97;;;14.37;;
22256;SDS011;11297;42.686;23.374;2022-08-30T15:10:54;19.63;;;13.50;;
22256;SDS011;11297;42.686;23.374;2022-08-30T15:13:19;14.27;;;12.73;;
22256;SDS011;11297;42.686;23.374;2022-08-30T15:15:45;16.27;;;12.67;;
22256;SDS011;11297;42.686;23.374;2022-08-30T15:18:10;14.50;;;12.67;;
22256;SDS011;11297;42.686;23.374;2022-08-30T15:20:36;14.30;;;11.83;;
22256;SDS011;11297;42.686;23.374;2022-08-30T15:23:08;14.10;;;11.97;;
22256;SDS011;11297;42.686;23.374;2022-08-30T15:25:33;11.77;;;10.67;;
22256;SDS011;11297;42.686;23.374;2022-08-30T15:27:59;14.47;;;12.13;;
22256;SDS011;11297;42.686;23.374;2022-08-30T15:30:24;14.03;;;11.93;;
22256;SDS011;11297;42.686;23.374;2022-08-30T15:32:49;15.23;;;12.23;;
22256;SDS011;11297;42.686;23.374;2022-08-30T15:35:15;12.97;;;11.67;;
22256;SDS011;11297;42.686;23.374;2022-08-30T15:37:40;11.90;;;10.90;;
22256;SDS011;11297;42.686;23.374;2022-08-30T15:40:06;12.97;;;10.83;;
22256;SDS011;11297;42.686;23.374;2022-08-30T15:42:32;13.53;;;12.13;;
22256;SDS011;11297;42.686;23.374;2022-08-30T15:44:57;13.13;;;11.00;;
22256;SDS011;11297;42.686;23.374;2022-08-30T15:47:23;14.00;;;12.50;;
22256;SDS011;11297;42.686;23.374;2022-08-30T15:49:55;12.10;;;10.90;;
22256;SDS011;11297;42.686;23.374;2022-08-30T15:52:22;12.93;;;11.63;;
22256;SDS011;11297;42.686;23.374;2022-08-30T15:54:48;12.93;;;11.63;;
22256;SDS011;11297;42.686;23.374;2022-08-30T15:57:14;16.10;;;11.27;;
22256;SDS011;11297;42.686;23.374;2022-08-30T15:59:39;11.23;;;10.13;;
22256;SDS011;11297;42.686;23.374;2022-08-30T16:02:05;12.03;;;10.83;;
22256;SDS011;11297;42.686;23.374;2022-08-30T16:04:30;13.67;;;11.03;;
22256;SDS011;11297;42.686;23.374;2022-08-30T16:06:56;12.60;;;11.30;;
22256;SDS011;11297;42.686;23.374;2022-08-30T16:09:22;13.40;;;11.43;;
22256;SDS011;11297;42.686;23.374;2022-08-30T16:11:47;13.70;;;11.00;;
22256;SDS011;11297;42.686;23.374;2022-08-30T16:14:13;12.97;;;11.60;;
22256;SDS011;11297;42.686;23.374;2022-08-30T16:16:39;11.67;;;10.47;;